首页
METAR-TAF:

METAR-TAF

机场 :

諾里奇, 英格兰

纬度: 52-38N, 经度: 001-18E, 海拔: 14米

当前天气观测

该预报发布于17分钟前的11:20 UTC
风速2节,风向多变
温度 19°C
湿度 56%
气压 1032 hPa
能见度10公里或以上
散云层高于3700英尺

METAR: EGSH 191120Z VRB02KT 9999 SCT037 19/10 Q1032 NOSIG

时间: 12:37 (11:37 UTC)

预报

该预报发布于3小时和37分钟前的08:00 UTC
预报有效从19日的 09点(UTC)到 19日的 18点(UTC)
风速3节,风向多变
能见度10公里或以上
散云层高于3000英尺

TAF: EGSH 190800Z 1909/1918 VRB03KT 9999 SCT030

超过4000个机场的气象观测和天气预报(METAR&TAF报告)。

可查询的气象台以黄色和红色小点在地图上表示。

将鼠标移到小点上方,可查看气象台名称。

然后点击查看天气观测和预报。

如需切换地图:点击带黑十字的绿色按钮放大地图;点击带横线的绿色按钮缩小地图;或者点击绿色箭头查看邻近地区的地图。


METAR-TAF: